Time;durP1;ratioP1;P1;durP2;ratioP2;P2;SDS_P1;SDS_P2;PMS_P1;PMS_P2;Temp;Humidity;BMP_temperature;BMP_pressure;BME280_temperature;BME280_humidity;BME280_pressure;Samples;Min_cycle;Max_cycle;Signal;HPM_P1;HPM_P2
2021/12/03 00:00:24;;;;;;;43.92;28.08;;;5.50;99.90;;;;;;5028409;28;20045;-70
2021/12/03 00:03:28;;;;;;;34.33;21.85;;;5.60;99.90;;;;;;5026899;28;20376;-70
2021/12/03 00:06:36;;;;;;;33.75;20.92;;;5.60;99.90;;;;;;5027581;28;20376;-70
2021/12/03 00:09:40;;;;;;;39.80;24.63;;;5.60;99.90;;;;;;5028127;28;20052;-69
2021/12/03 00:12:45;;;;;;;33.42;20.63;;;5.50;99.90;;;;;;5029062;28;20052;-70
2021/12/03 00:15:49;;;;;;;34.33;20.73;;;5.50;99.90;;;;;;5028687;28;20064;-70
2021/12/03 00:18:54;;;;;;;33.53;21.75;;;5.40;99.90;;;;;;5031551;28;20052;-70
2021/12/03 00:21:58;;;;;;;29.48;19.35;;;5.40;99.90;;;;;;5031739;28;20103;-70
2021/12/03 00:25:03;;;;;;;32.28;20.30;;;5.50;99.90;;;;;;5032021;28;20041;-70
2021/12/03 00:28:08;;;;;;;29.77;19.08;;;5.60;99.90;;;;;;5023452;28;20476;-70
2021/12/03 00:31:13;;;;;;;31.67;20.02;;;5.60;99.90;;;;;;5031993;28;20055;-70
2021/12/03 00:34:17;;;;;;;29.80;18.80;;;5.50;99.90;;;;;;5030005;28;20045;-70
2021/12/03 00:37:21;;;;;;;22.10;14.68;;;5.60;99.90;;;;;;5027113;28;20054;-70
2021/12/03 00:40:30;;;;;;;27.05;18.08;;;5.60;99.90;;;;;;5024833;28;20048;-70
2021/12/03 00:43:39;;;;;;;31.90;20.95;;;5.60;99.90;;;;;;5026501;28;20037;-70
2021/12/03 00:46:43;;;;;;;29.98;19.33;;;5.60;99.90;;;;;;5028408;28;20052;-71
2021/12/03 00:49:47;;;;;;;36.33;21.80;;;5.60;99.90;;;;;;5031098;28;20388;-70
2021/12/03 00:52:53;;;;;;;26.88;18.38;;;5.50;99.90;;;;;;5031655;28;20060;-70
2021/12/03 00:55:57;;;;;;;27.02;18.48;;;5.50;99.90;;;;;;5031263;28;20048;-70
2021/12/03 00:59:01;;;;;;;33.00;20.17;;;5.50;99.90;;;;;;5031075;28;20049;-71
2021/12/03 01:02:05;;;;;;;31.27;20.27;;;5.50;99.90;;;;;;5031378;28;20044;-70
2021/12/03 01:05:10;;;;;;;28.80;19.25;;;5.50;99.90;;;;;;5031759;28;20048;-71
2021/12/03 01:08:13;;;;;;;29.65;17.40;;;5.50;99.90;;;;;;5029697;28;20471;-70
2021/12/03 01:11:18;;;;;;;24.55;16.17;;;5.50;99.90;;;;;;5024470;28;20040;-71
2021/12/03 01:14:22;;;;;;;24.85;15.95;;;5.50;99.90;;;;;;5031615;28;20040;-70
2021/12/03 01:17:26;;;;;;;23.33;15.93;;;5.30;99.90;;;;;;5030628;28;20041;-70
2021/12/03 01:20:31;;;;;;;27.60;17.27;;;5.30;99.90;;;;;;5028119;28;20049;-70
2021/12/03 01:23:35;;;;;;;23.98;16.08;;;5.30;99.90;;;;;;5027371;28;20052;-70
2021/12/03 01:26:40;;;;;;;24.67;16.67;;;5.30;99.90;;;;;;5031526;28;20048;-70
2021/12/03 01:29:44;;;;;;;20.65;15.15;;;5.30;99.90;;;;;;5031398;28;20056;-70
2021/12/03 01:32:49;;;;;;;20.65;13.25;;;5.30;99.90;;;;;;5035066;28;20044;-70
2021/12/03 01:35:53;;;;;;;24.38;16.13;;;5.40;99.90;;;;;;5034172;28;20052;-70
2021/12/03 01:38:58;;;;;;;21.67;14.20;;;5.40;99.90;;;;;;5034257;28;20387;-70
2021/12/03 01:42:02;;;;;;;20.75;14.13;;;5.40;99.90;;;;;;5034774;28;20612;-70
2021/12/03 01:45:07;;;;;;;18.75;13.68;;;5.30;99.90;;;;;;5034941;28;20040;-70
2021/12/03 01:48:12;;;;;;;15.75;11.63;;;5.30;99.90;;;;;;5032166;28;20490;-70
2021/12/03 01:51:16;;;;;;;17.48;11.75;;;5.30;99.90;;;;;;5034708;28;20033;-70
2021/12/03 01:54:19;;;;;;;17.92;11.57;;;5.30;99.90;;;;;;5034780;28;20040;-70
2021/12/03 01:57:23;;;;;;;19.55;13.43;;;5.30;99.90;;;;;;5034526;28;20044;-70
2021/12/03 02:00:41;;;;;;;19.58;12.65;;;5.30;99.90;;;;;;5029214;28;20041;-70
2021/12/03 02:03:48;;;;;;;19.70;12.07;;;5.20;99.90;;;;;;5034126;28;20049;-70
2021/12/03 02:06:52;;;;;;;20.50;13.75;;;5.20;99.90;;;;;;5034301;28;20048;-70
2021/12/03 02:09:56;;;;;;;22.08;14.38;;;5.20;99.90;;;;;;5033801;28;20068;-70
2021/12/03 02:13:00;;;;;;;22.83;14.82;;;5.20;99.90;;;;;;5034556;28;20052;-70
2021/12/03 02:16:06;;;;;;;22.38;14.68;;;5.20;99.90;;;;;;5034120;28;20392;-70
2021/12/03 02:19:10;;;;;;;26.02;15.18;;;5.10;99.90;;;;;;5025957;28;20041;-71
2021/12/03 02:22:14;;;;;;;24.45;15.45;;;5.10;99.90;;;;;;5031781;28;20056;-70
2021/12/03 02:25:21;;;;;;;27.95;17.05;;;5.00;99.90;;;;;;5034208;28;20045;-71
2021/12/03 02:28:29;;;;;;;27.98;17.45;;;5.00;99.90;;;;;;5033578;28;20040;-70
2021/12/03 02:31:33;;;;;;;29.23;18.50;;;5.00;99.90;;;;;;5034161;28;20076;-71
2021/12/03 02:34:37;;;;;;;31.42;18.80;;;5.00;99.90;;;;;;5029651;28;20053;-70
2021/12/03 02:37:40;;;;;;;34.42;20.17;;;5.00;99.90;;;;;;5032254;28;20049;-70
2021/12/03 02:40:47;;;;;;;35.25;19.02;;;5.00;99.90;;;;;;5030773;28;20052;-70
2021/12/03 02:43:52;;;;;;;35.00;20.50;;;5.00;99.90;;;;;;5033848;28;20048;-70
2021/12/03 02:46:56;;;;;;;34.67;20.75;;;5.00;99.90;;;;;;5032250;28;20044;-70
2021/12/03 02:50:00;;;;;;;32.40;19.92;;;5.00;99.90;;;;;;5032184;28;20507;-70
2021/12/03 02:53:04;;;;;;;29.90;18.63;;;5.00;99.90;;;;;;5033670;28;20041;-70
2021/12/03 02:56:09;;;;;;;36.85;19.90;;;5.00;99.90;;;;;;5029080;28;20049;-70
2021/12/03 02:59:13;;;;;;;28.60;18.10;;;4.90;99.90;;;;;;5025995;28;20040;-70
2021/12/03 03:02:17;;;;;;;29.42;18.77;;;5.00;99.90;;;;;;5033397;28;20760;-70
2021/12/03 03:05:23;;;;;;;30.70;19.67;;;4.90;99.90;;;;;;5027402;28;20041;-70
2021/12/03 03:08:28;;;;;;;26.05;17.40;;;5.00;99.90;;;;;;5031790;28;20380;-70
2021/12/03 03:11:31;;;;;;;30.67;18.58;;;5.00;99.90;;;;;;5029630;28;20036;-71
2021/12/03 03:14:42;;;;;;;24.95;15.38;;;5.10;99.90;;;;;;5029107;28;20044;-70
2021/12/03 03:17:46;;;;;;;23.05;15.40;;;5.10;99.90;;;;;;5032960;28;20040;-70
2021/12/03 03:20:52;;;;;;;19.17;12.75;;;5.20;99.90;;;;;;5031106;28;20044;-70
2021/12/03 03:23:56;;;;;;;21.85;14.15;;;5.10;99.90;;;;;;5031477;28;20388;-71
2021/12/03 03:27:01;;;;;;;22.48;13.60;;;5.10;99.90;;;;;;5033130;28;20052;-70
2021/12/03 03:30:09;;;;;;;18.17;12.57;;;5.00;99.90;;;;;;5032291;28;20040;-70
2021/12/03 03:33:14;;;;;;;20.00;13.80;;;5.00;99.90;;;;;;5033179;28;20040;-70
2021/12/03 03:36:18;;;;;;;19.15;11.20;;;5.00;99.90;;;;;;5032440;28;20048;-70
2021/12/03 03:39:23;;;;;;;18.20;11.10;;;5.00;99.90;;;;;;5037862;28;20068;-70
2021/12/03 03:42:29;;;;;;;19.50;11.43;;;4.90;99.90;;;;;;5027862;28;20411;-70
2021/12/03 03:45:35;;;;;;;18.08;10.27;;;4.80;99.90;;;;;;5029986;28;20053;-71
2021/12/03 03:48:39;;;;;;;19.20;10.68;;;4.90;99.90;;;;;;5028234;28;20400;-70
2021/12/03 03:51:43;;;;;;;18.02;12.32;;;4.80;99.90;;;;;;5029184;28;20490;-70
2021/12/03 03:54:47;;;;;;;22.02;11.25;;;4.80;99.90;;;;;;5032545;28;20040;-70
2021/12/03 03:57:54;;;;;;;19.33;11.30;;;4.80;99.90;;;;;;5032143;28;20412;-71
2021/12/03 04:00:58;;;;;;;16.27;10.48;;;4.80;99.90;;;;;;5031574;28;20040;-70
2021/12/03 04:04:05;;;;;;;19.45;11.32;;;4.80;99.90;;;;;;5031707;28;20048;-70
2021/12/03 04:07:08;;;;;;;17.88;10.82;;;4.70;99.90;;;;;;5032379;28;20041;-70
2021/12/03 04:10:12;;;;;;;17.20;10.93;;;4.60;99.90;;;;;;5030584;28;20045;-71
2021/12/03 04:13:35;;;;;;;19.85;11.43;;;4.60;99.90;;;;;;5030836;28;20060;-71
2021/12/03 04:16:58;;;;;;;19.38;12.13;;;4.50;99.90;;;;;;5030678;28;20514;-71
2021/12/03 04:20:21;;;;;;;16.92;11.32;;;4.30;99.90;;;;;;5029724;28;20048;-70
2021/12/03 04:23:44;;;;;;;20.67;11.95;;;4.20;99.90;;;;;;5029536;28;20049;-71
2021/12/03 04:27:08;;;;;;;18.17;10.02;;;4.10;99.90;;;;;;5029743;28;20053;-70
2021/12/03 04:30:31;;;;;;;21.40;11.50;;;4.10;99.90;;;;;;5029262;28;20040;-70
2021/12/03 04:33:53;;;;;;;19.27;11.95;;;4.00;99.90;;;;;;5029596;28;20052;-70
2021/12/03 04:37:16;;;;;;;21.17;13.05;;;4.00;99.90;;;;;;5028964;28;20056;-70
2021/12/03 04:40:40;;;;;;;21.95;12.40;;;4.00;99.90;;;;;;5028881;28;20764;-70
2021/12/03 04:44:03;;;;;;;25.65;14.75;;;4.00;99.90;;;;;;5030967;28;20044;-70
2021/12/03 04:47:26;;;;;;;23.42;14.45;;;3.90;99.90;;;;;;5031442;28;20052;-70
2021/12/03 04:50:49;;;;;;;25.00;13.68;;;3.90;99.90;;;;;;5028780;28;20056;-71
2021/12/03 04:54:11;;;;;;;20.42;12.45;;;3.90;99.90;;;;;;5028201;28;20070;-71
2021/12/03 04:57:35;;;;;;;22.67;12.15;;;3.90;99.90;;;;;;5026762;28;20048;-70
2021/12/03 05:00:59;;;;;;;16.60;10.45;;;3.90;99.90;;;;;;5029967;28;20049;-70
2021/12/03 05:04:22;;;;;;;14.20;9.57;;;3.90;99.90;;;;;;5031378;28;20041;-70
2021/12/03 05:11:36;;;;;;;13.95;8.95;;;3.90;99.90;;;;;;5030090;28;20036;-70
2021/12/03 05:14:59;;;;;;;12.45;6.70;;;3.90;99.90;;;;;;5036587;28;20033;-70
2021/12/03 05:18:24;;;;;;;10.27;6.15;;;3.90;99.90;;;;;;5030586;28;20052;-71
2021/12/03 05:21:47;;;;;;;11.50;5.40;;;3.90;99.90;;;;;;5028311;28;20044;-71
2021/12/03 05:25:10;;;;;;;87.90;12.93;;;3.90;99.90;;;;;;5025957;28;20036;-71
2021/12/03 05:28:33;;;;;;;24.83;8.10;;;4.00;99.90;;;;;;5026031;28;20048;-71
2021/12/03 05:31:56;;;;;;;37.50;9.10;;;4.00;99.90;;;;;;5029706;28;20041;-71
2021/12/03 05:35:19;;;;;;;12.77;8.20;;;4.00;99.90;;;;;;5025295;28;20037;-70
2021/12/03 05:38:42;;;;;;;11.00;6.97;;;4.00;99.90;;;;;;5027060;28;20049;-71
2021/12/03 05:42:05;;;;;;;14.60;7.15;;;3.90;99.90;;;;;;5030736;28;20061;-70
2021/12/03 05:45:31;;;;;;;11.20;6.63;;;3.80;99.90;;;;;;5025693;28;20040;-70
2021/12/03 05:48:54;;;;;;;12.90;7.63;;;3.70;99.90;;;;;;5028412;28;20049;-71
2021/12/03 05:52:17;;;;;;;19.65;11.63;;;3.70;99.90;;;;;;5031127;28;20033;-71
2021/12/03 05:55:40;;;;;;;35.13;10.07;;;3.70;99.90;;;;;;5027233;28;20095;-71
2021/12/03 05:59:03;;;;;;;30.08;8.80;;;3.80;99.90;;;;;;5029711;28;20054;-71
2021/12/03 06:02:26;;;;;;;19.63;8.48;;;3.80;99.90;;;;;;5030847;28;20152;-71
2021/12/03 06:05:50;;;;;;;14.75;7.85;;;3.80;99.90;;;;;;5030484;28;20595;-70
2021/12/03 06:09:12;;;;;;;13.15;8.52;;;3.80;99.90;;;;;;5028124;28;20388;-71
2021/12/03 06:12:35;;;;;;;17.27;8.65;;;3.80;99.90;;;;;;5030021;28;20040;-70
2021/12/03 06:15:58;;;;;;;13.02;8.93;;;3.90;99.90;;;;;;5032824;28;20056;-70
2021/12/03 06:19:22;;;;;;;13.48;8.80;;;3.80;99.90;;;;;;5033453;28;20044;-71
2021/12/03 06:22:45;;;;;;;15.98;9.75;;;3.80;99.90;;;;;;5030826;28;20673;-71
2021/12/03 06:26:08;;;;;;;28.83;16.20;;;3.80;99.90;;;;;;5034039;28;20434;-70
2021/12/03 06:29:34;;;;;;;25.85;13.23;;;3.70;99.90;;;;;;5033070;28;20044;-70
2021/12/03 06:32:56;;;;;;;24.30;13.10;;;3.60;99.90;;;;;;5032348;28;20037;-71
2021/12/03 06:36:19;;;;;;;17.15;10.43;;;3.50;99.90;;;;;;5033763;28;20041;-71
2021/12/03 06:39:42;;;;;;;27.25;16.10;;;3.40;99.90;;;;;;5029815;28;20072;-71
2021/12/03 06:43:04;;;;;;;20.00;12.55;;;3.50;99.90;;;;;;5033505;28;20032;-70
2021/12/03 06:46:27;;;;;;;28.00;16.00;;;3.60;99.90;;;;;;5033661;28;20041;-70
2021/12/03 06:49:50;;;;;;;60.85;21.52;;;3.50;99.90;;;;;;5030377;28;20049;-71
2021/12/03 06:53:15;;;;;;;291.92;33.72;;;3.60;99.90;;;;;;5033594;28;20044;-70
2021/12/03 06:56:48;;;;;;;825.15;62.00;;;3.60;99.90;;;;;;5031724;28;20048;-70
2021/12/03 07:00:15;;;;;;;121.95;21.52;;;3.60;99.90;;;;;;5032531;28;20408;-70
2021/12/03 07:03:38;;;;;;;419.58;36.10;;;3.70;99.90;;;;;;5029222;28;20045;-71
2021/12/03 07:07:01;;;;;;;344.48;37.90;;;3.70;99.90;;;;;;5032282;28;20067;-71
2021/12/03 07:10:24;;;;;;;687.33;62.88;;;3.80;99.90;;;;;;5031491;28;20044;-70
2021/12/03 07:13:48;;;;;;;270.20;39.72;;;3.90;99.90;;;;;;5029860;28;20052;-71
2021/12/03 07:17:11;;;;;;;122.03;32.13;;;4.10;99.90;;;;;;5032602;28;20048;-71
2021/12/03 07:20:33;;;;;;;53.60;25.17;;;4.60;99.90;;;;;;5033041;28;20048;-70
2021/12/03 07:23:56;;;;;;;33.53;17.67;;;7.10;99.90;;;;;;5031499;28;20040;-71
2021/12/03 07:27:20;;;;;;;25.13;13.13;;;9.70;99.90;;;;;;5026307;28;20052;-71
2021/12/03 07:30:43;;;;;;;15.05;9.18;;;12.40;99.90;;;;;;5029747;28;20052;-71
2021/12/03 07:34:05;;;;;;;10.25;7.03;;;14.70;99.90;;;;;;5032714;28;20044;-71
2021/12/03 07:37:28;;;;;;;12.43;8.23;;;16.90;99.90;;;;;;5040354;28;20049;-72
2021/12/03 07:40:52;;;;;;;10.85;7.35;;;18.00;99.90;;;;;;5030653;28;20839;-72
2021/12/03 07:44:15;;;;;;;10.68;7.75;;;19.10;99.90;;;;;;5028424;28;20416;-72
2021/12/03 07:47:38;;;;;;;11.75;9.10;;;20.00;99.90;;;;;;5029956;28;20037;-72
2021/12/03 07:51:00;;;;;;;14.85;10.57;;;21.40;99.10;;;;;;5031477;28;20036;-72
2021/12/03 07:54:04;;;;;;;12.52;9.55;;;22.80;97.50;;;;;;5029705;28;20384;-70
2021/12/03 07:57:28;;;;;;;8.23;5.53;;;23.60;94.40;;;;;;5027407;28;20040;-72
2021/12/03 08:00:50;;;;;;;7.30;5.72;;;24.30;93.00;;;;;;5024650;28;20052;-69
2021/12/03 08:04:14;;;;;;;5.38;3.90;;;24.70;91.50;;;;;;5029769;28;20036;-69
2021/12/03 08:07:37;;;;;;;5.68;4.03;;;23.30;89.10;;;;;;5030717;28;20044;-71
2021/12/03 08:11:00;;;;;;;4.90;4.18;;;20.70;92.60;;;;;;5030959;28;20045;-71
2021/12/03 08:14:23;;;;;;;4.70;3.78;;;20.50;94.30;;;;;;5031225;28;20531;-72
2021/12/03 08:17:27;;;;;;;4.47;3.75;;;19.90;93.30;;;;;;5027334;28;20040;-71
2021/12/03 08:20:32;;;;;;;3.95;3.55;;;19.00;95.00;;;;;;5026234;28;20041;-71
2021/12/03 08:23:36;;;;;;;4.57;3.42;;;19.80;95.80;;;;;;5030937;28;20040;-72
2021/12/03 08:26:40;;;;;;;3.00;2.55;;;21.90;92.80;;;;;;5026228;28;20044;-72
2021/12/03 08:29:44;;;;;;;3.38;2.70;;;24.10;90.90;;;;;;5027189;28;20045;-69
2021/12/03 08:32:48;;;;;;;2.97;1.98;;;26.20;87.40;;;;;;5027773;28;20044;-69
2021/12/03 08:35:53;;;;;;;2.03;1.40;;;27.50;85.00;;;;;;5030729;28;20045;-69
2021/12/03 08:38:57;;;;;;;1.38;1.00;;;28.30;83.20;;;;;;5029278;28;20625;-71
2021/12/03 08:42:01;;;;;;;1.27;1.17;;;28.90;81.80;;;;;;5030503;28;20100;-71
2021/12/03 08:45:09;;;;;;;0.80;0.80;;;29.40;79.90;;;;;;5031711;28;20037;-71
2021/12/03 08:48:13;;;;;;;1.88;0.77;;;29.40;77.30;;;;;;5026212;28;20052;-70
2021/12/03 08:57:43;;;;;;;3.25;1.00;;;31.90;71.50;;;;;;5028706;28;20056;-70
2021/12/03 09:00:47;;;;;;;8.98;1.85;;;31.70;69.20;;;;;;5026350;28;20048;-70
2021/12/03 09:03:53;;;;;;;0.63;0.50;;;31.30;72.70;;;;;;5030308;28;20052;-70
2021/12/03 09:06:58;;;;;;;0.73;0.50;;;30.30;70.10;;;;;;5027011;28;20041;-70
2021/12/03 09:10:11;;;;;;;5.82;5.22;;;30.30;68.10;;;;;;5024894;28;20384;-70
2021/12/03 09:13:15;;;;;;;5.25;4.25;;;25.50;73.70;;;;;;5027996;28;20499;-70
2021/12/03 09:16:21;;;;;;;6.13;5.18;;;27.20;74.50;;;;;;5022565;28;20041;-70
2021/12/03 09:19:32;;;;;;;6.03;4.90;;;22.00;74.40;;;;;;5026971;28;20045;-69
2021/12/03 09:22:49;;;;;;;6.20;4.65;;;22.00;79.80;;;;;;5024088;28;20487;-70
2021/12/03 09:26:05;;;;;;;4.00;3.22;;;23.10;80.40;;;;;;5025066;28;20113;-70
2021/12/03 09:29:13;;;;;;;2.65;2.13;;;22.80;81.10;;;;;;5028001;28;20044;-70
2021/12/03 09:32:25;;;;;;;2.25;0.50;;;26.00;78.90;;;;;;5024700;28;20048;-70
2021/12/03 09:35:30;;;;;;;0.60;0.40;;;27.20;74.60;;;;;;5023874;28;20057;-70
2021/12/03 09:38:36;;;;;;;1.80;1.40;;;27.20;72.90;;;;;;5028333;28;20066;-70
2021/12/03 09:41:41;;;;;;;1.00;0.85;;;26.10;71.00;;;;;;5026155;28;20040;-70
2021/12/03 09:44:46;;;;;;;0.50;0.50;;;26.90;73.60;;;;;;5029441;28;20680;-70
2021/12/03 09:47:52;;;;;;;0.43;0.32;;;27.90;72.10;;;;;;5031207;28;20060;-70
2021/12/03 09:50:57;;;;;;;0.20;0.10;;;29.60;71.40;;;;;;5032050;28;20060;-70
2021/12/03 09:57:27;;;;;;;0.20;0.20;;;31.20;69.60;;;;;;5031511;28;20044;-71
2021/12/03 10:13:19;;;;;;;1.75;1.20;;;27.70;67.80;;;;;;5025123;28;20598;-70
2021/12/03 10:17:00;;;;;;;0.40;0.40;;;29.30;70.10;;;;;;5027426;28;20048;-70
2021/12/03 10:20:21;;;;;;;0.20;0.13;;;30.40;68.20;;;;;;5031652;28;20057;-71
2021/12/03 10:37:46;;;;;;;0.10;0.10;;;30.20;61.70;;;;;;5026753;28;20436;-71
2021/12/03 10:44:02;;;;;;;0.13;0.10;;;28.90;68.70;;;;;;5032299;28;20049;-71
2021/12/03 10:53:46;;;;;;;0.10;0.10;;;32.40;62.30;;;;;;5029074;28;20048;-71
2021/12/03 11:37:37;;;;;;;1.83;0.60;;;30.70;60.00;;;;;;5027658;28;20419;-72
2021/12/03 11:47:58;;;;;;;0.52;0.10;;;26.30;57.50;;;;;;5025471;28;20060;-71
2021/12/03 12:29:46;;;;;;;1.00;0.40;;;26.10;58.50;;;;;;5030448;28;20044;-70
2021/12/03 12:47:13;;;;;;;0.47;0.30;;;21.50;62.50;;;;;;5026339;28;20045;-72
2021/12/03 13:16:45;;;;;;;0.40;0.30;;;25.60;58.50;;;;;;5028846;28;20396;-71
2021/12/03 14:47:38;;;;;;;0.93;0.82;;;12.40;83.80;;;;;;5032905;28;20036;-71
2021/12/03 15:10:21;;;;;;;4.15;0.88;;;10.40;89.20;;;;;;5026393;28;20045;-70
2021/12/03 15:23:44;;;;;;;2.78;0.90;;;10.00;90.40;;;;;;5031833;28;19916;-72
2021/12/03 15:33:44;;;;;;;3.47;1.42;;;9.00;92.90;;;;;;5027824;28;20041;-70
2021/12/03 15:37:08;;;;;;;3.35;0.90;;;8.70;93.60;;;;;;5032157;28;20473;-70
2021/12/03 16:10:41;;;;;;;34.60;15.05;;;7.70;99.90;;;;;;5026573;28;20049;-70
2021/12/03 16:17:11;;;;;;;4.00;1.27;;;7.60;99.90;;;;;;5028994;28;20046;-70
2021/12/03 16:46:56;;;;;;;1.90;1.30;;;7.40;99.90;;;;;;5025467;28;20045;-70
2021/12/03 16:53:24;;;;;;;8.80;3.47;;;7.40;99.90;;;;;;5025306;28;20033;-71
2021/12/03 16:56:28;;;;;;;2.63;1.33;;;7.40;99.90;;;;;;5025208;28;20037;-69
2021/12/03 16:59:33;;;;;;;4.57;2.38;;;7.50;99.90;;;;;;5024916;28;20034;-71
2021/12/03 17:02:43;;;;;;;8.82;1.40;;;7.50;99.90;;;;;;5026345;28;20037;-71
2021/12/03 17:58:43;;;;;;;7.05;3.60;;;7.20;99.90;;;;;;5024872;28;20046;-71
2021/12/03 18:05:03;;;;;;;5.70;3.25;;;6.40;99.90;;;;;;5025833;28;20377;-71
2021/12/03 18:08:20;;;;;;;8.50;3.75;;;6.30;99.90;;;;;;5027187;28;20029;-71
2021/12/03 18:57:26;;;;;;;14.90;7.10;;;5.10;99.90;;;;;;5031013;28;20033;-70
2021/12/03 19:00:42;;;;;;;8.50;5.25;;;5.00;99.90;;;;;;5027709;28;20036;-71
2021/12/03 19:07:15;;;;;;;18.15;7.65;;;5.00;99.90;;;;;;5032723;28;20049;-71
2021/12/03 19:10:23;;;;;;;18.63;10.32;;;4.90;99.90;;;;;;5025522;28;20068;-71
2021/12/03 19:13:33;;;;;;;10.60;6.60;;;4.90;99.90;;;;;;5027622;28;20065;-71
2021/12/03 19:16:37;;;;;;;15.20;9.60;;;4.80;99.90;;;;;;5029002;28;20052;-71
2021/12/03 19:19:44;;;;;;;33.60;17.63;;;4.70;99.90;;;;;;5031288;28;20053;-71
2021/12/03 19:22:49;;;;;;;23.02;14.35;;;4.60;99.90;;;;;;5030217;28;20040;-71
2021/12/03 19:25:53;;;;;;;11.70;7.55;;;4.60;99.90;;;;;;5033236;28;20385;-71
2021/12/03 19:29:00;;;;;;;36.45;17.38;;;4.50;99.90;;;;;;5030172;28;20048;-71
2021/12/03 19:32:05;;;;;;;10.52;6.97;;;4.40;99.90;;;;;;5030994;28;20048;-71
2021/12/03 19:35:10;;;;;;;11.10;7.00;;;4.30;99.90;;;;;;5031241;28;20036;-71
2021/12/03 19:38:17;;;;;;;17.63;9.93;;;4.30;99.90;;;;;;5031425;28;20044;-71
2021/12/03 19:48:07;;;;;;;21.25;12.57;;;4.30;99.90;;;;;;5031835;28;20120;-71
2021/12/03 19:51:14;;;;;;;14.75;9.27;;;4.20;99.90;;;;;;5031704;28;20494;-71
2021/12/03 19:54:19;;;;;;;18.48;11.02;;;4.10;99.90;;;;;;5025047;28;20033;-71
2021/12/03 19:57:24;;;;;;;17.88;9.40;;;4.10;99.90;;;;;;5030795;28;20044;-71
2021/12/03 20:00:29;;;;;;;12.98;8.45;;;4.10;99.90;;;;;;5030938;28;20491;-71
2021/12/03 20:03:33;;;;;;;12.57;7.45;;;4.00;99.90;;;;;;5026548;28;20036;-71
2021/12/03 20:06:44;;;;;;;11.75;6.80;;;4.00;99.90;;;;;;5031996;28;20045;-70
2021/12/03 20:10:03;;;;;;;9.45;5.85;;;4.00;99.90;;;;;;5028583;28;20503;-71
2021/12/03 20:13:10;;;;;;;12.30;6.22;;;4.00;99.90;;;;;;5031371;28;20029;-71
2021/12/03 20:19:53;;;;;;;11.20;7.53;;;4.00;99.90;;;;;;5028310;28;20040;-71
2021/12/03 20:26:56;;;;;;;8.77;5.78;;;4.10;99.90;;;;;;4985626;28;20061;-71
2021/12/03 20:30:05;;;;;;;7.00;5.25;;;4.00;99.90;;;;;;5029718;28;20365;-71
2021/12/03 20:36:53;;;;;;;10.40;6.60;;;4.00;99.90;;;;;;5030283;28;20041;-71
2021/12/03 20:40:02;;;;;;;12.05;7.32;;;4.00;99.90;;;;;;5028978;28;20049;-71
2021/12/03 20:46:35;;;;;;;15.38;9.13;;;3.80;99.90;;;;;;5031498;28;20044;-71
2021/12/03 20:50:30;;;;;;;21.58;13.07;;;3.90;99.90;;;;;;5030071;28;20044;-71
2021/12/03 21:09:57;;;;;;;13.57;7.50;;;3.90;99.90;;;;;;5028372;28;20538;-71
2021/12/03 21:13:10;;;;;;;12.82;8.38;;;3.90;99.90;;;;;;5030507;28;20496;-71
2021/12/03 21:19:47;;;;;;;13.98;8.23;;;3.70;99.90;;;;;;5029278;28;20041;-71
2021/12/03 21:22:56;;;;;;;13.23;7.10;;;3.60;99.90;;;;;;5028977;28;20487;-71
2021/12/03 21:26:02;;;;;;;13.50;7.35;;;3.50;99.90;;;;;;5030761;28;20060;-71
2021/12/03 21:32:42;;;;;;;14.50;9.45;;;3.50;99.90;;;;;;5024381;28;20041;-71
2021/12/03 21:41:59;;;;;;;12.90;6.97;;;3.40;99.90;;;;;;5032224;28;20138;-71
2021/12/03 21:45:03;;;;;;;13.25;7.45;;;3.40;99.90;;;;;;5034912;28;20052;-71
2021/12/03 21:48:07;;;;;;;12.32;7.28;;;3.40;99.90;;;;;;5033578;28;20048;-70
2021/12/03 21:51:11;;;;;;;10.35;6.80;;;3.30;99.90;;;;;;5027622;28;20064;-71
2021/12/03 21:54:16;;;;;;;12.25;7.88;;;3.30;99.90;;;;;;5027791;28;20045;-71
2021/12/03 21:57:25;;;;;;;12.98;7.95;;;3.30;99.90;;;;;;5032525;28;20044;-71
2021/12/03 22:00:30;;;;;;;20.85;11.63;;;3.20;99.90;;;;;;5033142;28;20495;-71
2021/12/03 22:03:35;;;;;;;25.77;13.60;;;3.20;99.90;;;;;;5029482;28;20388;-71
2021/12/03 22:06:40;;;;;;;25.42;13.73;;;3.10;99.90;;;;;;5034252;28;20048;-71
2021/12/03 22:09:49;;;;;;;43.47;21.20;;;3.00;99.90;;;;;;5030691;28;20052;-71
2021/12/03 22:12:53;;;;;;;41.72;19.63;;;3.00;99.90;;;;;;5032084;28;20056;-71
2021/12/03 22:15:59;;;;;;;41.95;18.95;;;3.00;99.90;;;;;;5034353;28;20040;-71
2021/12/03 22:19:03;;;;;;;43.15;21.88;;;3.00;99.90;;;;;;5034788;28;20060;-71
2021/12/03 22:22:07;;;;;;;59.13;27.23;;;3.00;99.90;;;;;;5044780;28;20055;-71
2021/12/03 22:25:11;;;;;;;25.98;14.75;;;3.00;99.90;;;;;;5029568;28;20044;-71
2021/12/03 22:28:15;;;;;;;24.33;12.88;;;2.90;99.90;;;;;;5032547;28;20052;-71
2021/12/03 22:31:19;;;;;;;18.27;8.65;;;2.80;99.90;;;;;;5026247;28;20041;-71
2021/12/03 22:34:23;;;;;;;12.75;7.35;;;2.80;99.90;;;;;;5033823;28;20467;-71
2021/12/03 22:37:27;;;;;;;9.30;5.90;;;2.90;99.90;;;;;;5029427;28;20389;-71
2021/12/03 22:40:34;;;;;;;8.50;5.40;;;3.00;99.90;;;;;;5031262;28;20045;-71
2021/12/03 22:43:41;;;;;;;14.15;8.52;;;3.10;99.90;;;;;;5029900;28;20041;-71
2021/12/03 22:53:17;;;;;;;22.42;11.32;;;3.10;99.90;;;;;;5026489;28;19939;-71
2021/12/03 22:56:21;;;;;;;28.65;13.10;;;3.00;99.90;;;;;;5027294;28;20056;-71
2021/12/03 22:59:25;;;;;;;54.88;24.83;;;2.90;99.90;;;;;;5030388;28;20400;-71
2021/12/03 23:02:29;;;;;;;21.60;10.52;;;2.90;99.90;;;;;;5029424;28;20036;-71
2021/12/03 23:05:33;;;;;;;25.02;11.35;;;3.00;99.90;;;;;;5028219;28;20044;-70
2021/12/03 23:08:37;;;;;;;29.88;12.88;;;3.00;99.90;;;;;;5029090;28;20048;-71
2021/12/03 23:11:41;;;;;;;23.88;11.57;;;3.00;99.90;;;;;;5029150;28;20044;-71
2021/12/03 23:14:45;;;;;;;20.80;10.18;;;2.90;99.90;;;;;;5032974;28;20388;-71
2021/12/03 23:17:49;;;;;;;14.82;8.70;;;2.90;99.90;;;;;;5032517;28;20041;-71
2021/12/03 23:20:53;;;;;;;12.95;7.60;;;2.90;99.90;;;;;;5032065;28;20393;-71
2021/12/03 23:23:57;;;;;;;19.08;9.35;;;2.90;99.90;;;;;;5033030;28;20499;-71
2021/12/03 23:27:02;;;;;;;13.27;8.63;;;2.90;99.90;;;;;;5031924;28;20044;-71
2021/12/03 23:30:08;;;;;;;20.40;8.98;;;2.80;99.90;;;;;;5031399;28;20416;-71
2021/12/03 23:33:15;;;;;;;17.05;9.40;;;2.80;99.90;;;;;;5029666;28;20154;-71
2021/12/03 23:36:20;;;;;;;14.70;8.38;;;2.80;99.90;;;;;;5026988;28;20044;-71
2021/12/03 23:39:24;;;;;;;14.07;8.52;;;2.70;99.90;;;;;;5025259;28;20048;-71
2021/12/03 23:42:28;;;;;;;12.57;7.38;;;2.70;99.90;;;;;;5032372;28;20033;-71
2021/12/03 23:45:34;;;;;;;12.85;7.45;;;2.60;99.90;;;;;;5031177;28;20064;-70
2021/12/03 23:48:39;;;;;;;13.90;6.50;;;2.60;99.90;;;;;;5030896;28;20048;-70
2021/12/03 23:51:55;;;;;;;10.63;6.47;;;2.50;99.90;;;;;;5028648;28;20049;-70
2021/12/03 23:54:59;;;;;;;9.07;6.25;;;2.40;99.90;;;;;;5031513;28;20040;-71
2021/12/03 23:58:07;;;;;;;10.50;5.85;;;2.40;99.90;;;;;;5031092;28;20037;-71
